sensor_id;sensor_type;location;lat;lon;timestamp;pressure;altitude;pressure_sealevel;temperature;humidity
29935;BME280;19905;53.370;-6.314;2023-08-17T00:01:44;101792.75;;;14.38;100.00
29935;BME280;19905;53.370;-6.314;2023-08-17T00:04:13;101783.31;;;14.34;100.00
29935;BME280;19905;53.370;-6.314;2023-08-17T00:06:41;101786.94;;;14.33;100.00
29935;BME280;19905;53.370;-6.314;2023-08-17T00:09:11;101794.81;;;14.35;100.00
29935;BME280;19905;53.370;-6.314;2023-08-17T00:11:40;101789.72;;;14.32;100.00
29935;BME280;19905;53.370;-6.314;2023-08-17T00:14:09;101790.78;;;14.29;100.00
29935;BME280;19905;53.370;-6.314;2023-08-17T00:16:39;101789.09;;;14.28;100.00
29935;BME280;19905;53.370;-6.314;2023-08-17T00:19:09;101789.34;;;14.25;100.00
29935;BME280;19905;53.370;-6.314;2023-08-17T00:21:38;101794.03;;;14.21;100.00
29935;BME280;19905;53.370;-6.314;2023-08-17T00:24:07;101798.50;;;14.21;100.00
29935;BME280;19905;53.370;-6.314;2023-08-17T00:26:38;101797.03;;;14.17;100.00
29935;BME280;19905;53.370;-6.314;2023-08-17T00:29:06;101792.69;;;14.16;100.00
29935;BME280;19905;53.370;-6.314;2023-08-17T00:31:35;101795.44;;;14.14;100.00
29935;BME280;19905;53.370;-6.314;2023-08-17T00:34:03;101795.75;;;14.10;100.00
29935;BME280;19905;53.370;-6.314;2023-08-17T00:36:32;101793.34;;;14.07;100.00
29935;BME280;19905;53.370;-6.314;2023-08-17T00:39:01;101789.59;;;14.09;100.00
29935;BME280;19905;53.370;-6.314;2023-08-17T00:41:30;101782.38;;;14.11;100.00
29935;BME280;19905;53.370;-6.314;2023-08-17T00:44:00;101778.63;;;14.14;100.00
29935;BME280;19905;53.370;-6.314;2023-08-17T00:46:29;101776.09;;;14.12;100.00
29935;BME280;19905;53.370;-6.314;2023-08-17T00:48:58;101771.75;;;14.11;100.00
29935;BME280;19905;53.370;-6.314;2023-08-17T00:53:58;101770.16;;;14.09;100.00
29935;BME280;19905;53.370;-6.314;2023-08-17T00:56:29;101772.19;;;14.05;100.00
29935;BME280;19905;53.370;-6.314;2023-08-17T00:58:59;101767.63;;;14.07;100.00
29935;BME280;19905;53.370;-6.314;2023-08-17T01:01:28;101764.22;;;14.05;100.00
29935;BME280;19905;53.370;-6.314;2023-08-17T01:03:56;101766.03;;;14.05;100.00
29935;BME280;19905;53.370;-6.314;2023-08-17T01:06:25;101758.19;;;14.03;100.00
29935;BME280;19905;53.370;-6.314;2023-08-17T01:08:54;101760.00;;;14.03;100.00
29935;BME280;19905;53.370;-6.314;2023-08-17T01:11:29;101762.03;;;13.99;100.00
29935;BME280;19905;53.370;-6.314;2023-08-17T01:14:04;101758.63;;;13.97;100.00
29935;BME280;19905;53.370;-6.314;2023-08-17T01:16:39;101754.06;;;13.99;100.00
29935;BME280;19905;53.370;-6.314;2023-08-17T01:19:09;101745.34;;;13.97;100.00
29935;BME280;19905;53.370;-6.314;2023-08-17T01:21:42;101744.28;;;13.99;100.00
29935;BME280;19905;53.370;-6.314;2023-08-17T01:24:14;101739.31;;;13.95;100.00
29935;BME280;19905;53.370;-6.314;2023-08-17T01:26:43;101741.13;;;13.94;100.00
29935;BME280;19905;53.370;-6.314;2023-08-17T01:29:11;101741.13;;;13.94;100.00
29935;BME280;19905;53.370;-6.314;2023-08-17T01:31:47;101740.03;;;13.97;100.00
29935;BME280;19905;53.370;-6.314;2023-08-17T01:34:22;101743.91;;;13.93;100.00
29935;BME280;19905;53.370;-6.314;2023-08-17T01:36:55;101745.81;;;13.91;100.00
29935;BME280;19905;53.370;-6.314;2023-08-17T01:39:37;101738.59;;;13.93;100.00
29935;BME280;19905;53.370;-6.314;2023-08-17T01:42:06;101738.59;;;13.93;100.00
29935;BME280;19905;53.370;-6.314;2023-08-17T01:44:36;101729.75;;;13.92;100.00
29935;BME280;19905;53.370;-6.314;2023-08-17T01:47:05;101720.94;;;13.92;100.00
29935;BME280;19905;53.370;-6.314;2023-08-17T01:49:33;101724.69;;;13.89;100.00
29935;BME280;19905;53.370;-6.314;2023-08-17T01:52:02;101711.75;;;13.85;100.00
29935;BME280;19905;53.370;-6.314;2023-08-17T01:54:32;101713.66;;;13.83;100.00
29935;BME280;19905;53.370;-6.314;2023-08-17T01:57:00;101711.47;;;13.77;100.00
29935;BME280;19905;53.370;-6.314;2023-08-17T01:59:29;101714.44;;;13.72;100.00
29935;BME280;19905;53.370;-6.314;2023-08-17T02:01:57;101719.75;;;13.72;100.00
29935;BME280;19905;53.370;-6.314;2023-08-17T02:04:26;101716.59;;;13.67;100.00
29935;BME280;19905;53.370;-6.314;2023-08-17T02:06:54;101719.25;;;13.67;100.00
29935;BME280;19905;53.370;-6.314;2023-08-17T02:09:23;101712.97;;;13.68;100.00
29935;BME280;19905;53.370;-6.314;2023-08-17T02:11:54;101712.13;;;13.67;100.00
29935;BME280;19905;53.370;-6.314;2023-08-17T02:14:22;101703.44;;;13.65;100.00
29935;BME280;19905;53.370;-6.314;2023-08-17T02:16:52;101709.47;;;13.67;100.00
29935;BME280;19905;53.370;-6.314;2023-08-17T02:19:21;101702.47;;;13.66;100.00
29935;BME280;19905;53.370;-6.314;2023-08-17T02:21:50;101706.94;;;13.66;100.00
29935;BME280;19905;53.370;-6.314;2023-08-17T02:24:18;101704.16;;;13.67;100.00
29935;BME280;19905;53.370;-6.314;2023-08-17T02:26:47;101711.28;;;13.67;100.00
29935;BME280;19905;53.370;-6.314;2023-08-17T02:29:20;101711.16;;;13.68;100.00
29935;BME280;19905;53.370;-6.314;2023-08-17T02:31:49;101705.13;;;13.66;100.00
29935;BME280;19905;53.370;-6.314;2023-08-17T02:34:17;101702.47;;;13.66;100.00
29935;BME280;19905;53.370;-6.314;2023-08-17T02:36:46;101700.88;;;13.64;100.00
29935;BME280;19905;53.370;-6.314;2023-08-17T02:39:15;101704.28;;;13.66;100.00
29935;BME280;19905;53.370;-6.314;2023-08-17T02:41:43;101700.03;;;13.63;100.00
29935;BME280;19905;53.370;-6.314;2023-08-17T02:44:12;101706.44;;;13.61;100.00
29935;BME280;19905;53.370;-6.314;2023-08-17T02:46:42;101704.63;;;13.61;100.00
29935;BME280;19905;53.370;-6.314;2023-08-17T02:49:11;101702.19;;;13.58;100.00
29935;BME280;19905;53.370;-6.314;2023-08-17T02:51:39;101699.53;;;13.58;100.00
29935;BME280;19905;53.370;-6.314;2023-08-17T02:54:08;101700.50;;;13.57;100.00
29935;BME280;19905;53.370;-6.314;2023-08-17T02:56:36;101706.78;;;13.56;100.00
29935;BME280;19905;53.370;-6.314;2023-08-17T02:59:05;101703.16;;;13.57;100.00
29935;BME280;19905;53.370;-6.314;2023-08-17T03:01:33;101703.88;;;13.59;100.00
29935;BME280;19905;53.370;-6.314;2023-08-17T03:04:04;101695.81;;;13.61;100.00
29935;BME280;19905;53.370;-6.314;2023-08-17T03:06:32;101695.69;;;13.62;100.00
29935;BME280;19905;53.370;-6.314;2023-08-17T03:09:01;101689.53;;;13.62;100.00
29935;BME280;19905;53.370;-6.314;2023-08-17T03:11:29;101687.84;;;13.61;100.00
29935;BME280;19905;53.370;-6.314;2023-08-17T03:13:58;101678.31;;;13.58;100.00
29935;BME280;19905;53.370;-6.314;2023-08-17T03:16:29;101673.72;;;13.60;100.00
29935;BME280;19905;53.370;-6.314;2023-08-17T03:18:58;101678.31;;;13.58;100.00
29935;BME280;19905;53.370;-6.314;2023-08-17T03:21:28;101673.84;;;13.59;100.00
29935;BME280;19905;53.370;-6.314;2023-08-17T03:23:57;101679.91;;;13.61;100.00
29935;BME280;19905;53.370;-6.314;2023-08-17T03:26:26;101678.31;;;13.58;100.00
29935;BME280;19905;53.370;-6.314;2023-08-17T03:28:55;101680.22;;;13.56;100.00
29935;BME280;19905;53.370;-6.314;2023-08-17T03:31:23;101689.03;;;13.57;100.00
29935;BME280;19905;53.370;-6.314;2023-08-17T03:33:52;101675.00;;;13.55;100.00
29935;BME280;19905;53.370;-6.314;2023-08-17T03:36:22;101677.66;;;13.55;100.00
29935;BME280;19905;53.370;-6.314;2023-08-17T03:38:52;101677.78;;;13.53;100.00
29935;BME280;19905;53.370;-6.314;2023-08-17T03:41:21;101678.50;;;13.55;100.00
29935;BME280;19905;53.370;-6.314;2023-08-17T03:43:51;101688.28;;;13.55;100.00
29935;BME280;19905;53.370;-6.314;2023-08-17T03:46:19;101681.28;;;13.54;100.00
29935;BME280;19905;53.370;-6.314;2023-08-17T03:48:48;101679.59;;;13.53;100.00
29935;BME280;19905;53.370;-6.314;2023-08-17T03:51:20;101676.81;;;13.54;100.00
29935;BME280;19905;53.370;-6.314;2023-08-17T03:53:48;101673.13;;;13.57;100.00
29935;BME280;19905;53.370;-6.314;2023-08-17T03:56:18;101673.84;;;13.59;100.00
29935;BME280;19905;53.370;-6.314;2023-08-17T03:58:48;101677.13;;;13.62;100.00
29935;BME280;19905;53.370;-6.314;2023-08-17T04:01:16;101685.81;;;13.64;100.00
29935;BME280;19905;53.370;-6.314;2023-08-17T04:03:45;101680.50;;;13.64;100.00
29935;BME280;19905;53.370;-6.314;2023-08-17T04:06:14;101686.66;;;13.65;100.00
29935;BME280;19905;53.370;-6.314;2023-08-17T04:08:42;101683.28;;;13.63;100.00
29935;BME280;19905;53.370;-6.314;2023-08-17T04:11:11;101678.81;;;13.63;100.00
29935;BME280;19905;53.370;-6.314;2023-08-17T04:13:41;101680.50;;;13.64;100.00
29935;BME280;19905;53.370;-6.314;2023-08-17T04:16:09;101685.94;;;13.63;100.00
29935;BME280;19905;53.370;-6.314;2023-08-17T04:18:38;101678.94;;;13.62;100.00
29935;BME280;19905;53.370;-6.314;2023-08-17T04:21:06;101680.75;;;13.61;100.00
29935;BME280;19905;53.370;-6.314;2023-08-17T04:23:35;101682.31;;;13.64;100.00
29935;BME280;19905;53.370;-6.314;2023-08-17T04:26:03;101679.78;;;13.62;100.00
29935;BME280;19905;53.370;-6.314;2023-08-17T04:28:32;101667.56;;;13.60;100.00
29935;BME280;19905;53.370;-6.314;2023-08-17T04:31:02;101673.72;;;13.60;100.00
29935;BME280;19905;53.370;-6.314;2023-08-17T04:33:31;101677.47;;;13.58;100.00
29935;BME280;19905;53.370;-6.314;2023-08-17T04:36:03;101675.78;;;13.57;100.00
29935;BME280;19905;53.370;-6.314;2023-08-17T04:38:31;101669.81;;;13.53;100.00
29935;BME280;19905;53.370;-6.314;2023-08-17T04:41:00;101664.66;;;13.52;100.00
29935;BME280;19905;53.370;-6.314;2023-08-17T04:43:28;101658.72;;;13.48;100.00
29935;BME280;19905;53.370;-6.314;2023-08-17T04:45:57;101664.00;;;13.48;100.00
29935;BME280;19905;53.370;-6.314;2023-08-17T04:48:28;101662.22;;;13.48;100.00
29935;BME280;19905;53.370;-6.314;2023-08-17T04:50:56;101660.50;;;13.47;100.00
29935;BME280;19905;53.370;-6.314;2023-08-17T04:53:24;101656.06;;;13.48;100.00
29935;BME280;19905;53.370;-6.314;2023-08-17T04:55:53;101655.09;;;13.49;100.00
29935;BME280;19905;53.370;-6.314;2023-08-17T04:58:21;101655.94;;;13.50;100.00
29935;BME280;19905;53.370;-6.314;2023-08-17T05:00:50;101654.38;;;13.47;100.00
29935;BME280;19905;53.370;-6.314;2023-08-17T05:03:19;101654.47;;;13.45;100.00
29935;BME280;19905;53.370;-6.314;2023-08-17T05:06:02;101652.56;;;13.47;100.00
29935;BME280;19905;53.370;-6.314;2023-08-17T05:08:30;101649.16;;;13.45;100.00
29935;BME280;19905;53.370;-6.314;2023-08-17T05:10:59;101642.03;;;13.46;100.00
29935;BME280;19905;53.370;-6.314;2023-08-17T05:13:28;101641.19;;;13.45;100.00
29935;BME280;19905;53.370;-6.314;2023-08-17T05:15:58;101643.13;;;13.43;100.00
29935;BME280;19905;53.370;-6.314;2023-08-17T05:18:27;101647.34;;;13.46;100.00
29935;BME280;19905;53.370;-6.314;2023-08-17T05:20:58;101648.59;;;13.53;100.00
29935;BME280;19905;53.370;-6.314;2023-08-17T05:23:29;101651.97;;;13.55;100.00
29935;BME280;19905;53.370;-6.314;2023-08-17T05:25:57;101654.41;;;13.58;100.00
29935;BME280;19905;53.370;-6.314;2023-08-17T05:28:26;101648.03;;;13.61;100.00
29935;BME280;19905;53.370;-6.314;2023-08-17T05:30:55;101652.13;;;13.65;100.00
29935;BME280;19905;53.370;-6.314;2023-08-17T05:33:23;101649.38;;;13.66;100.00
29935;BME280;19905;53.370;-6.314;2023-08-17T05:35:54;101650.00;;;13.70;100.00
29935;BME280;19905;53.370;-6.314;2023-08-17T05:38:22;101653.16;;;13.75;100.00
29935;BME280;19905;53.370;-6.314;2023-08-17T05:40:55;101655.47;;;13.80;100.00
29935;BME280;19905;53.370;-6.314;2023-08-17T05:43:25;101653.41;;;13.83;100.00
29935;BME280;19905;53.370;-6.314;2023-08-17T05:45:56;101652.97;;;13.89;100.00
29935;BME280;19905;53.370;-6.314;2023-08-17T05:48:26;101644.66;;;13.94;100.00
29935;BME280;19905;53.370;-6.314;2023-08-17T05:50:56;101644.53;;;13.95;100.00
29935;BME280;19905;53.370;-6.314;2023-08-17T05:53:25;101638.25;;;13.96;100.00
29935;BME280;19905;53.370;-6.314;2023-08-17T05:55:56;101640.69;;;13.99;100.00
29935;BME280;19905;53.370;-6.314;2023-08-17T05:58:25;101641.41;;;14.02;100.00
29935;BME280;19905;53.370;-6.314;2023-08-17T06:00:54;101642.63;;;14.09;100.00
29935;BME280;19905;53.370;-6.314;2023-08-17T06:03:23;101631.66;;;14.13;100.00
29935;BME280;19905;53.370;-6.314;2023-08-17T06:05:52;101630.22;;;14.20;100.00
29935;BME280;19905;53.370;-6.314;2023-08-17T06:08:21;101634.22;;;14.26;100.00
29935;BME280;19905;53.370;-6.314;2023-08-17T06:10:50;101632.06;;;14.31;100.00
29935;BME280;19905;53.370;-6.314;2023-08-17T06:13:20;101632.41;;;14.38;100.00
29935;BME280;19905;53.370;-6.314;2023-08-17T06:15:49;101625.19;;;14.40;100.00
29935;BME280;19905;53.370;-6.314;2023-08-17T06:18:17;101628.31;;;14.45;100.00
29935;BME280;19905;53.370;-6.314;2023-08-17T06:20:47;101627.22;;;14.47;100.00
29935;BME280;19905;53.370;-6.314;2023-08-17T06:23:19;101624.50;;;14.49;100.00
29935;BME280;19905;53.370;-6.314;2023-08-17T06:25:47;101629.19;;;14.57;100.00
29935;BME280;19905;53.370;-6.314;2023-08-17T06:28:16;101620.75;;;14.63;100.00
29935;BME280;19905;53.370;-6.314;2023-08-17T06:30:46;101613.38;;;14.66;100.00
29935;BME280;19905;53.370;-6.314;2023-08-17T06:33:15;101616.53;;;14.71;100.00
29935;BME280;19905;53.370;-6.314;2023-08-17T06:35:44;101619.53;;;14.78;100.00
29935;BME280;19905;53.370;-6.314;2023-08-17T06:38:14;101618.91;;;14.86;100.00
29935;BME280;19905;53.370;-6.314;2023-08-17T06:40:42;101620.00;;;14.94;100.00
29935;BME280;19905;53.370;-6.314;2023-08-17T06:43:10;101614.56;;;14.96;100.00
29935;BME280;19905;53.370;-6.314;2023-08-17T06:45:40;101613.94;;;15.04;100.00
29935;BME280;19905;53.370;-6.314;2023-08-17T06:48:10;101610.78;;;15.10;100.00
29935;BME280;19905;53.370;-6.314;2023-08-17T06:50:39;101603.25;;;15.15;100.00
29935;BME280;19905;53.370;-6.314;2023-08-17T06:53:07;101597.56;;;15.19;100.00
29935;BME280;19905;53.370;-6.314;2023-08-17T06:55:36;101595.50;;;15.23;100.00
29935;BME280;19905;53.370;-6.314;2023-08-17T06:58:05;101596.81;;;15.29;100.00
29935;BME280;19905;53.370;-6.314;2023-08-17T07:00:33;101594.75;;;15.32;100.00
29935;BME280;19905;53.370;-6.314;2023-08-17T07:03:02;101589.19;;;15.35;100.00
29935;BME280;19905;53.370;-6.314;2023-08-17T07:05:33;101574.63;;;15.39;100.00
29935;BME280;19905;53.370;-6.314;2023-08-17T07:08:02;101579.44;;;15.45;100.00
29935;BME280;19905;53.370;-6.314;2023-08-17T07:10:31;101579.91;;;15.50;100.00
29935;BME280;19905;53.370;-6.314;2023-08-17T07:12:59;101574.19;;;15.55;100.00
29935;BME280;19905;53.370;-6.314;2023-08-17T07:15:30;101575.28;;;15.64;100.00
29935;BME280;19905;53.370;-6.314;2023-08-17T07:17:59;101564.38;;;15.67;100.00
29935;BME280;19905;53.370;-6.314;2023-08-17T07:20:30;101556.31;;;15.78;100.00
29935;BME280;19905;53.370;-6.314;2023-08-17T07:23:00;101552.56;;;15.81;100.00
29935;BME280;19905;53.370;-6.314;2023-08-17T07:25:29;101553.84;;;15.86;100.00
29935;BME280;19905;53.370;-6.314;2023-08-17T07:28:01;101551.03;;;15.88;100.00
29935;BME280;19905;53.370;-6.314;2023-08-17T07:30:29;101549.75;;;15.82;100.00
29935;BME280;19905;53.370;-6.314;2023-08-17T07:32:57;101560.81;;;15.78;100.00
29935;BME280;19905;53.370;-6.314;2023-08-17T07:35:26;101560.94;;;15.76;100.00
29935;BME280;19905;53.370;-6.314;2023-08-17T07:37:54;101556.91;;;15.82;100.00
29935;BME280;19905;53.370;-6.314;2023-08-17T07:40:36;101546.09;;;15.83;100.00
29935;BME280;19905;53.370;-6.314;2023-08-17T07:43:04;101547.78;;;15.84;100.00
29935;BME280;19905;53.370;-6.314;2023-08-17T07:45:33;101540.31;;;15.78;100.00
29935;BME280;19905;53.370;-6.314;2023-08-17T07:48:01;101533.91;;;15.81;100.00
29935;BME280;19905;53.370;-6.314;2023-08-17T07:50:30;101531.63;;;15.76;100.00
29935;BME280;19905;53.370;-6.314;2023-08-17T07:52:59;101531.41;;;15.89;100.00
29935;BME280;19905;53.370;-6.314;2023-08-17T07:55:27;101523.59;;;15.97;100.00
29935;BME280;19905;53.370;-6.314;2023-08-17T07:57:57;101514.97;;;16.05;100.00
29935;BME280;19905;53.370;-6.314;2023-08-17T08:00:25;101515.19;;;16.22;100.00
29935;BME280;19905;53.370;-6.314;2023-08-17T08:02:54;101504.66;;;16.31;100.00
29935;BME280;19905;53.370;-6.314;2023-08-17T08:05:23;101494.31;;;16.37;100.00
29935;BME280;19905;53.370;-6.314;2023-08-17T08:07:52;101482.56;;;16.49;100.00
29935;BME280;19905;53.370;-6.314;2023-08-17T08:10:26;101484.53;;;16.57;100.00
29935;BME280;19905;53.370;-6.314;2023-08-17T08:12:57;101479.94;;;16.59;100.00
29935;BME280;19905;53.370;-6.314;2023-08-17T08:15:27;101488.22;;;16.66;100.00
29935;BME280;19905;53.370;-6.314;2023-08-17T08:17:56;101481.47;;;16.62;100.00
29935;BME280;19905;53.370;-6.314;2023-08-17T08:20:28;101473.03;;;16.57;100.00
29935;BME280;19905;53.370;-6.314;2023-08-17T08:22:57;101478.09;;;16.60;100.00
29935;BME280;19905;53.370;-6.314;2023-08-17T08:25:25;101473.38;;;16.73;100.00
29935;BME280;19905;53.370;-6.314;2023-08-17T08:27:54;101492.19;;;16.81;100.00
29935;BME280;19905;53.370;-6.314;2023-08-17T08:30:24;101480.41;;;16.93;100.00
29935;BME280;19905;53.370;-6.314;2023-08-17T08:32:52;101477.16;;;16.80;100.00
29935;BME280;19905;53.370;-6.314;2023-08-17T08:35:22;101471.13;;;16.78;100.00
29935;BME280;19905;53.370;-6.314;2023-08-17T08:37:51;101469.31;;;16.79;100.00
29935;BME280;19905;53.370;-6.314;2023-08-17T08:40:25;101469.16;;;16.90;100.00
29935;BME280;19905;53.370;-6.314;2023-08-17T08:42:55;101469.72;;;17.03;100.00
29935;BME280;19905;53.370;-6.314;2023-08-17T08:45:28;101470.28;;;17.16;100.00
29935;BME280;19905;53.370;-6.314;2023-08-17T08:47:58;101459.03;;;17.22;100.00
29935;BME280;19905;53.370;-6.314;2023-08-17T08:50:31;101465.94;;;17.25;100.00
29935;BME280;19905;53.370;-6.314;2023-08-17T08:53:01;101471.28;;;17.25;100.00
29935;BME280;19905;53.370;-6.314;2023-08-17T08:55:37;101469.72;;;17.42;100.00
29935;BME280;19905;53.370;-6.314;2023-08-17T08:58:11;101467.72;;;17.44;100.00
29935;BME280;19905;53.370;-6.314;2023-08-17T09:00:45;101462.78;;;17.59;100.00
29935;BME280;19905;53.370;-6.314;2023-08-17T09:03:15;101467.16;;;17.60;100.00
29935;BME280;19905;53.370;-6.314;2023-08-17T09:05:47;101464.44;;;17.79;100.00
29935;BME280;19905;53.370;-6.314;2023-08-17T09:08:22;101440.09;;;17.82;100.00
29935;BME280;19905;53.370;-6.314;2023-08-17T09:10:53;101440.47;;;17.97;100.00
29935;BME280;19905;53.370;-6.314;2023-08-17T09:13:22;101438.31;;;18.10;100.00
29935;BME280;19905;53.370;-6.314;2023-08-17T09:15:52;101442.00;;;18.27;100.00
29935;BME280;19905;53.370;-6.314;2023-08-17T09:18:21;101430.16;;;18.29;100.00
29935;BME280;19905;53.370;-6.314;2023-08-17T09:20:51;101432.88;;;18.47;100.00
29935;BME280;19905;53.370;-6.314;2023-08-17T09:23:21;101431.88;;;18.48;100.00
29935;BME280;19905;53.370;-6.314;2023-08-17T09:25:50;101410.94;;;18.44;100.00
29935;BME280;19905;53.370;-6.314;2023-08-17T09:28:25;101402.38;;;18.58;100.00
29935;BME280;19905;53.370;-6.314;2023-08-17T09:30:57;101415.75;;;18.58;100.00
29935;BME280;19905;53.370;-6.314;2023-08-17T09:33:28;101405.81;;;18.50;100.00
29935;BME280;19905;53.370;-6.314;2023-08-17T09:35:59;101413.91;;;18.59;100.00
29935;BME280;19905;53.370;-6.314;2023-08-17T09:38:30;101405.09;;;18.76;100.00
29935;BME280;19905;53.370;-6.314;2023-08-17T09:40:58;101398.44;;;18.80;100.00
29935;BME280;19905;53.370;-6.314;2023-08-17T09:43:27;101389.91;;;18.67;100.00
29935;BME280;19905;53.370;-6.314;2023-08-17T09:45:59;101381.91;;;18.85;100.00
29935;BME280;19905;53.370;-6.314;2023-08-17T09:48:30;101376.09;;;18.71;100.00
29935;BME280;19905;53.370;-6.314;2023-08-17T09:50:59;101373.19;;;18.83;100.00
29935;BME280;19905;53.370;-6.314;2023-08-17T09:53:29;101374.34;;;18.80;100.00
29935;BME280;19905;53.370;-6.314;2023-08-17T09:56:05;101366.44;;;18.96;100.00
29935;BME280;19905;53.370;-6.314;2023-08-17T09:58:43;101358.59;;;19.21;100.00
29935;BME280;19905;53.370;-6.314;2023-08-17T10:01:14;101344.72;;;19.25;100.00
29935;BME280;19905;53.370;-6.314;2023-08-17T10:03:44;101360.56;;;19.19;100.00
29935;BME280;19905;53.370;-6.314;2023-08-17T10:06:19;101349.25;;;19.25;100.00
29935;BME280;19905;53.370;-6.314;2023-08-17T10:08:54;101361.34;;;19.63;100.00
29935;BME280;19905;53.370;-6.314;2023-08-17T10:11:26;101348.28;;;19.60;100.00
29935;BME280;19905;53.370;-6.314;2023-08-17T10:14:00;101337.75;;;19.67;100.00
29935;BME280;19905;53.370;-6.314;2023-08-17T10:16:44;101345.50;;;19.44;100.00
29935;BME280;19905;53.370;-6.314;2023-08-17T10:19:17;101340.00;;;19.79;100.00
29935;BME280;19905;53.370;-6.314;2023-08-17T10:21:52;101329.03;;;19.65;100.00
29935;BME280;19905;53.370;-6.314;2023-08-17T10:24:22;101329.56;;;19.68;100.00
29935;BME280;19905;53.370;-6.314;2023-08-17T10:26:52;101333.28;;;19.84;100.00
29935;BME280;19905;53.370;-6.314;2023-08-17T10:29:22;101322.22;;;19.78;100.00
29935;BME280;19905;53.370;-6.314;2023-08-17T10:31:53;101311.34;;;19.80;100.00
29935;BME280;19905;53.370;-6.314;2023-08-17T10:34:22;101322.31;;;19.61;100.00
29935;BME280;19905;53.370;-6.314;2023-08-17T10:36:52;101324.41;;;19.49;100.00
29935;BME280;19905;53.370;-6.314;2023-08-17T10:39:26;101327.34;;;19.64;100.00
29935;BME280;19905;53.370;-6.314;2023-08-17T10:41:57;101327.09;;;19.75;100.00
29935;BME280;19905;53.370;-6.314;2023-08-17T10:44:40;101321.09;;;19.89;100.00
29935;BME280;19905;53.370;-6.314;2023-08-17T10:47:21;101323.50;;;20.17;100.00
29935;BME280;19905;53.370;-6.314;2023-08-17T10:49:51;101315.66;;;19.73;100.00
29935;BME280;19905;53.370;-6.314;2023-08-17T10:52:27;101311.59;;;19.61;100.00
29935;BME280;19905;53.370;-6.314;2023-08-17T10:54:56;101320.84;;;19.40;100.00
29935;BME280;19905;53.370;-6.314;2023-08-17T10:57:27;101318.84;;;19.42;100.00
29935;BME280;19905;53.370;-6.314;2023-08-17T11:00:13;101314.66;;;19.74;100.00
29935;BME280;19905;53.370;-6.314;2023-08-17T11:02:52;101308.38;;;19.99;100.00
29935;BME280;19905;53.370;-6.314;2023-08-17T11:05:40;101304.06;;;20.31;100.00
29935;BME280;19905;53.370;-6.314;2023-08-17T11:08:10;101309.75;;;20.28;100.00
29935;BME280;19905;53.370;-6.314;2023-08-17T11:10:47;101308.19;;;20.01;100.00
29935;BME280;19905;53.370;-6.314;2023-08-17T11:13:17;101308.75;;;20.21;100.00
29935;BME280;19905;53.370;-6.314;2023-08-17T11:15:46;101303.59;;;20.60;100.00
29935;BME280;19905;53.370;-6.314;2023-08-17T11:18:18;101310.31;;;20.56;100.00
29935;BME280;19905;53.370;-6.314;2023-08-17T11:20:47;101300.56;;;20.30;100.00
29935;BME280;19905;53.370;-6.314;2023-08-17T11:23:17;101309.16;;;20.50;100.00
29935;BME280;19905;53.370;-6.314;2023-08-17T11:25:46;101304.59;;;20.35;100.00
29935;BME280;19905;53.370;-6.314;2023-08-17T11:28:17;101310.63;;;20.45;100.00
29935;BME280;19905;53.370;-6.314;2023-08-17T11:30:56;101304.13;;;20.64;100.00
29935;BME280;19905;53.370;-6.314;2023-08-17T11:33:28;101287.31;;;20.94;100.00
29935;BME280;19905;53.370;-6.314;2023-08-17T11:35:57;101297.53;;;20.66;100.00
29935;BME280;19905;53.370;-6.314;2023-08-17T11:38:30;101286.81;;;20.91;100.00
29935;BME280;19905;53.370;-6.314;2023-08-17T11:41:02;101295.66;;;21.08;100.00
29935;BME280;19905;53.370;-6.314;2023-08-17T11:43:32;101288.38;;;21.24;100.00
29935;BME280;19905;53.370;-6.314;2023-08-17T11:46:01;101287.47;;;21.48;100.00
29935;BME280;19905;53.370;-6.314;2023-08-17T11:48:32;101281.16;;;21.41;100.00
29935;BME280;19905;53.370;-6.314;2023-08-17T11:51:03;101276.47;;;21.35;100.00
29935;BME280;19905;53.370;-6.314;2023-08-17T11:53:38;101285.28;;;21.52;100.00
29935;BME280;19905;53.370;-6.314;2023-08-17T11:56:08;101281.28;;;21.48;100.00
29935;BME280;19905;53.370;-6.314;2023-08-17T11:58:40;101277.28;;;21.75;100.00
29935;BME280;19905;53.370;-6.314;2023-08-17T12:01:13;101273.03;;;22.12;100.00
29935;BME280;19905;53.370;-6.314;2023-08-17T12:03:51;101276.31;;;21.68;100.00
29935;BME280;19905;53.370;-6.314;2023-08-17T12:06:21;101267.50;;;20.87;100.00
29935;BME280;19905;53.370;-6.314;2023-08-17T12:08:50;101269.06;;;21.21;100.00
29935;BME280;19905;53.370;-6.314;2023-08-17T12:11:18;101260.34;;;21.35;100.00
29935;BME280;19905;53.370;-6.314;2023-08-17T12:13:51;101264.16;;;20.85;100.00
29935;BME280;19905;53.370;-6.314;2023-08-17T12:16:22;101259.81;;;20.68;100.00
29935;BME280;19905;53.370;-6.314;2023-08-17T12:18:53;101259.94;;;20.99;100.00
29935;BME280;19905;53.370;-6.314;2023-08-17T12:21:21;101266.59;;;21.11;100.00
29935;BME280;19905;53.370;-6.314;2023-08-17T12:23:50;101266.25;;;21.14;100.00
29935;BME280;19905;53.370;-6.314;2023-08-17T12:26:19;101258.06;;;21.08;100.00
29935;BME280;19905;53.370;-6.314;2023-08-17T12:28:49;101265.63;;;20.96;100.00
29935;BME280;19905;53.370;-6.314;2023-08-17T12:31:21;101267.31;;;20.97;100.00
29935;BME280;19905;53.370;-6.314;2023-08-17T12:33:53;101260.06;;;21.05;100.00
29935;BME280;19905;53.370;-6.314;2023-08-17T12:36:21;101265.03;;;21.33;100.00
29935;BME280;19905;53.370;-6.314;2023-08-17T12:38:50;101258.47;;;21.75;100.00
29935;BME280;19905;53.370;-6.314;2023-08-17T12:41:19;101255.72;;;22.14;100.00
29935;BME280;19905;53.370;-6.314;2023-08-17T12:43:48;101261.25;;;21.59;100.00
29935;BME280;19905;53.370;-6.314;2023-08-17T12:46:16;101257.94;;;21.79;100.00
29935;BME280;19905;53.370;-6.314;2023-08-17T12:48:45;101248.09;;;21.33;100.00